Historyczne dane pomiarowe

Dodano dane terminowe – wersja testowa.

Dane z okresu 1951-2019

Wersja bazy: 1.34 [2019-03-16, lista zmian], aktualizacja planowana na 2019-04-15

Dane meteo z obszaru Polski uzyskane na podstawie danych udostępnionych przez Instytut Meteorologii i Gospodarki Wodnej – Państwowy Instytut Badawczy.

 

Wybierz Datę:    

       

TemperaturaWilgotnośćWiatrCiśnienieOpadyŚniegCzas trwania zjawisk
 Stacja t tx tn tng RH VA  wxwx mslp ppp RRR   cm mm wxwxwxwxwxwxwx
2002-10-10 5.6 8.0 4.0- 86.3- 7.7 2.0---- 0.0------------
2002-10-09 6.3 8.0 5.2- 87.3- 8.0 0.7---- 0.0------------
2002-10-08 4.2 6.0 2.3- 94.8- 7.3 2.7---- 2.6------------
2002-10-07 6.4 13.0 3.6- 90.0- 5.3 1.7---- 1.2------------
2002-10-06 11.1 15.5 7.2- 88.3- 7.0 3.0---- 7.4------------
2002-10-05 10.8 15.2 8.6- 79.3- 2.7 1.7---- 2.5------------
2002-10-04 12.8 17.0 9.7- 92.5- 7.3 1.0---- 0.6------------
2002-10-03 13.5 19.1 8.3- 72.3- 6.0 0.7---- 0.9------------
2002-10-02 10.9 18.0 5.8- 81.0- 1.7 0.7---- 0.0------------
2002-10-01 10.7 17.5 5.3- 90.8- 5.0 0.7---- 0.0------------
2002-09-30 9.9 15.0 5.3- 87.0- 5.0 0.0---- 0.0------------
2002-09-29 8.8 15.0 3.0- 79.3- 6.0 0.0---- 0.0------------
2002-09-28 8.2 13.0 5.6- 84.8- 4.7 1.3---- 0.0------------
2002-09-27 9.3 11.6 7.8- 91.5- 6.7 3.7---- 0.0------------
2002-09-26 9.2 15.0 5.3- 83.3- 7.0 0.0---- 3.9------------
2002-09-25 6.9 10.0 5.0- 87.5- 8.0 0.7---- 8.1------------
2002-09-24 6.6 9.5 4.3- 70.0- 7.0 3.3---- 1.5------------
2002-09-23 10.4 16.0 7.7- 96.5- 8.0 1.7---- 1.4------------
2002-09-22 10.5 16.0 7.6- 87.0- 6.3 0.7---- 5.5------------
2002-09-21 12.7 16.5 10.5- 86.0- 6.3 1.0---- 0.0------------
2002-09-20 11.5 17.5 6.8- 87.0- 7.3 0.0---- 0.0------------
2002-09-19 12.4 17.0 8.2- 82.5- 6.7 0.7---- 0.0------------
2002-09-18 13.5 17.0 10.3- 83.3- 5.3 1.3---- 0.0------------
2002-09-17 11.5 14.8 8.4- 92.0- 8.0 1.3---- 3.7------------
2002-09-16 11.1 14.6 8.7- 87.0- 6.3 1.3---- 1.1------------
2002-09-15 12.2 18.6 9.4- 91.8- 7.0 2.7---- 5.4------------
2002-09-14 12.8 21.1 5.6- 77.0- 4.3 1.3---- 8.2------------
2002-09-13 10.1 18.0 3.2- 72.0- 3.0 0.0---- 0.0------------
2002-09-12 11.2 17.0 6.6- 73.0- 0.0 0.7---- 0.0------------
2002-09-11 15.8 21.5 12.2- 82.5- 4.7 1.3---- 0.0------------
2002-09-10 18.5 25.6 13.3- 78.3- 4.3 0.7---- 0.0------------
2002-09-09 17.7 24.8 10.8- 75.3- 1.3 0.7---- 0.0------------
2002-09-08 16.6 24.0 10.3- 79.0- 0.0 1.0---- 0.0------------
2002-09-07 15.9 23.0 9.7- 79.0- 1.7 0.0---- 0.0------------
2002-09-06 17.5 20.6 14.8- 86.8- 5.0 0.7---- 0.5------------
2002-09-05 18.2 24.4 14.3- 81.3- 6.0 0.7---- 1.8------------
2002-09-04 18.6 26.5 12.6- 75.3- 2.3 1.7---- 0.0------------
2002-09-03 15.8 22.6 9.7- 84.5- 5.0 1.0---- 0.0------------
2002-09-02 14.9 21.1 9.7- 77.3- 5.7 0.7---- 1.6------------
2002-09-01 17.6 25.4 13.8- 95.0- 7.7 1.7---- 2.5------------
2002-08-31 21.7 29.1 15.8- 75.5- 3.0 0.0---- 80.5------------
2002-08-30 21.1 27.9 15.8- 77.0- 3.7 0.0---- 0.0------------
2002-08-29 21.0 26.9 16.4- 78.8- 2.0 0.7---- 0.0------------
2002-08-28 21.7 27.4 17.8- 72.3- 3.7 1.3---- 0.0------------
2002-08-27 20.3 28.4 14.8- 77.0- 1.3 1.0---- 0.0------------
2002-08-26 21.2 27.9 15.4- 75.0- 1.7 0.7---- 0.0------------
2002-08-25 20.5 28.9 14.0- 81.8- 3.0 0.0---- 0.0------------
2002-08-24 20.1 27.9 13.3- 71.5- 1.3 0.7---- 0.0------------
2002-08-23 20.2 27.9 13.4- 71.0- 0.0 0.7---- 0.0------------
2002-08-22 19.5 27.1 14.0- 76.0- 2.7 0.0---- 0.0------------
2002-08-21 20.1 26.7 14.2- 73.5- 2.3 0.0---- 0.0------------
2002-08-20 18.4 26.5 12.0- 77.0- 0.0 1.3---- 0.0------------
2002-08-19 19.8 27.3 14.3- 80.0- 2.7 1.0---- 0.0------------
2002-08-18 20.9 27.1 15.3- 84.0- 1.7 0.7---- 0.0------------
2002-08-17 19.7 26.7 14.4- 86.8- 4.0 0.0---- 0.0------------
2002-08-16 19.9 24.0 17.0- 88.0- 6.0 2.0---- 44.5------------
2002-08-15 19.0 22.0 16.4- 88.5- 7.3 2.0---- 1.5------------
2002-08-14 15.5 17.4 13.8- 97.0- 8.0 2.7---- 10.3------------
2002-08-13 16.4 20.1 13.8- 97.8- 8.0 2.7---- 57.2------------
2002-08-12 19.6 25.4 16.8- 93.5- 5.7 0.7---- 17.7------------
254.6 ms

 

Źródłem pochodzenia danych jest Instytut Meteorologii i Gospodarki Wodnej – Państwowy Instytut Badawczy. Dane Instytutu Meteorologii i Gospodarki Wodnej – Państwowego Instytutu Badawczego zostały przetworzone.

Dane źródłowe można odnaleźć na stronie https://dane.imgw.pl